METAR Formatted Surface Weather Observation
Issued by NWS

Home | Current Version | Previous Version | Text Only | Print | Product List | Glossary On
Versions: 1 2 3 4 5 6 7 8 9 10 11 12 13
000
SAUS46 KSEW 020935
MTRSMP
SPECI KSMP 020933Z AUTO 28007KT 1/4SM FG VV002 09/08 A3000 RMK AO2
T00940083 $



USA.gov is the U.S. government's official web portal to all federal, state and local government web resources and services.